Time;durP1;ratioP1;P1;durP2;ratioP2;P2;SDS_P1;SDS_P2;PMS_P1;PMS_P2;Temp;Humidity;BMP_temperature;BMP_pressure;BME280_temperature;BME280_humidity;BME280_pressure;Samples;Min_cycle;Max_cycle;Signal;HPM_P1;HPM_P2
2023/09/13 00:01:50;;;;;;;3.83;3.33;;;19.20;99.90;;;;;;4973016;28;20207;-67
2023/09/13 00:04:20;;;;;;;3.90;3.40;;;19.10;99.90;;;;;;4965731;28;20221;-66
2023/09/13 00:06:48;;;;;;;4.97;4.20;;;19.10;99.90;;;;;;4972354;28;20231;-65
2023/09/13 00:09:16;;;;;;;3.70;3.40;;;19.10;99.90;;;;;;4971984;28;20265;-66
2023/09/13 00:11:46;;;;;;;2.85;2.65;;;19.10;99.90;;;;;;4970604;28;20261;-66
2023/09/13 00:14:14;;;;;;;4.90;3.80;;;19.10;99.90;;;;;;4969623;28;20214;-65
2023/09/13 00:16:41;;;;;;;3.88;3.53;;;19.10;99.90;;;;;;4970601;28;20730;-64
2023/09/13 00:19:10;;;;;;;4.13;3.13;;;19.30;99.90;;;;;;4973098;28;20720;-65
2023/09/13 00:21:42;;;;;;;5.82;4.38;;;20.00;99.90;;;;;;4982162;28;20222;-65
2023/09/13 00:24:11;;;;;;;4.00;3.25;;;20.30;99.90;;;;;;4982539;28;20210;-64
2023/09/13 00:26:38;;;;;;;4.53;3.35;;;20.60;99.90;;;;;;4981738;28;20214;-65
2023/09/13 00:29:08;;;;;;;3.50;3.20;;;20.70;99.90;;;;;;4983694;28;20214;-65
2023/09/13 00:31:36;;;;;;;5.32;3.67;;;20.90;99.90;;;;;;4981790;28;20603;-65
2023/09/13 00:34:04;;;;;;;4.95;4.30;;;20.90;99.90;;;;;;4982828;28;20218;-65
2023/09/13 00:36:32;;;;;;;4.95;4.45;;;20.80;99.90;;;;;;4985150;28;20333;-65
2023/09/13 00:39:00;;;;;;;5.95;4.22;;;20.70;99.90;;;;;;4979301;28;20215;-65
2023/09/13 00:41:28;;;;;;;4.60;4.15;;;20.70;99.90;;;;;;4984927;28;20214;-65
2023/09/13 00:43:56;;;;;;;4.28;3.55;;;20.60;99.90;;;;;;4981360;28;20215;-63
2023/09/13 00:46:26;;;;;;;4.20;3.90;;;20.80;99.90;;;;;;4985078;28;20206;-64
2023/09/13 00:48:54;;;;;;;3.67;3.38;;;20.80;99.90;;;;;;4979308;28;20242;-64
2023/09/13 00:51:22;;;;;;;3.63;3.10;;;20.60;99.90;;;;;;4981562;28;20896;-64
2023/09/13 00:53:50;;;;;;;5.68;5.07;;;20.70;99.90;;;;;;4981345;28;20215;-64
2023/09/13 00:56:19;;;;;;;6.10;5.20;;;20.60;99.90;;;;;;4979898;28;20221;-64
2023/09/13 00:58:48;;;;;;;6.88;5.18;;;20.30;99.90;;;;;;4984738;28;20229;-64
2023/09/13 01:01:17;;;;;;;5.70;4.95;;;20.00;99.90;;;;;;4981570;28;20223;-65
2023/09/13 01:03:47;;;;;;;7.93;5.65;;;20.00;99.90;;;;;;4981287;28;20228;-65
2023/09/13 01:06:16;;;;;;;6.50;5.80;;;19.70;99.90;;;;;;4981040;28;20217;-65
2023/09/13 01:08:45;;;;;;;9.23;6.65;;;19.80;99.90;;;;;;4981146;28;20281;-65
2023/09/13 01:11:13;;;;;;;7.40;5.85;;;19.80;99.90;;;;;;4989414;28;20268;-65
2023/09/13 01:13:41;;;;;;;6.47;5.18;;;19.80;99.90;;;;;;4978211;28;20218;-64
2023/09/13 01:16:20;;;;;;;6.88;6.15;;;19.80;99.90;;;;;;4980811;28;20521;-65
2023/09/13 01:19:00;;;;;;;6.65;6.03;;;20.00;99.90;;;;;;4981046;28;20281;-65
2023/09/13 01:21:49;;;;;;;5.60;4.90;;;20.10;99.90;;;;;;4980857;28;20699;-65
2023/09/13 01:24:41;;;;;;;6.45;5.85;;;19.80;99.90;;;;;;4982831;28;20214;-65
2023/09/13 01:27:26;;;;;;;7.30;5.90;;;19.90;99.90;;;;;;4979179;28;20794;-65
2023/09/13 01:29:59;;;;;;;8.85;6.55;;;20.00;99.90;;;;;;4980424;28;20206;-65
2023/09/13 01:32:27;;;;;;;7.85;6.63;;;19.90;99.90;;;;;;4973501;28;20214;-66
2023/09/13 01:34:55;;;;;;;7.55;6.82;;;19.80;99.90;;;;;;4980587;28;20203;-66
2023/09/13 01:37:22;;;;;;;7.05;6.35;;;19.80;99.90;;;;;;4972989;28;20218;-65
2023/09/13 01:39:52;;;;;;;6.13;5.53;;;19.90;99.90;;;;;;4976961;28;20278;-65
2023/09/13 01:42:20;;;;;;;5.18;4.68;;;19.70;99.90;;;;;;4982976;28;20218;-64
2023/09/13 01:44:49;;;;;;;9.07;6.57;;;20.00;99.90;;;;;;4983720;28;20218;-64
2023/09/13 01:47:19;;;;;;;7.00;5.20;;;19.90;99.90;;;;;;4980666;28;20767;-65
2023/09/13 01:49:47;;;;;;;5.88;4.75;;;19.90;99.90;;;;;;4980665;28;20215;-64
2023/09/13 01:52:15;;;;;;;5.63;5.03;;;19.90;99.90;;;;;;4982450;28;20207;-64
2023/09/13 01:54:44;;;;;;;5.95;5.35;;;19.70;99.90;;;;;;4983426;28;20268;-65
2023/09/13 01:57:12;;;;;;;4.82;4.32;;;19.80;99.90;;;;;;4977056;28;20258;-65
2023/09/13 01:59:40;;;;;;;5.03;4.55;;;19.90;99.90;;;;;;4978023;28;20874;-64
2023/09/13 02:02:08;;;;;;;4.35;3.95;;;19.90;99.90;;;;;;4983176;28;20209;-65
2023/09/13 02:04:37;;;;;;;5.30;4.80;;;20.00;99.90;;;;;;4979935;28;20301;-65
2023/09/13 02:07:05;;;;;;;5.78;5.20;;;20.00;99.90;;;;;;4980950;28;20249;-65
2023/09/13 02:09:33;;;;;;;6.68;5.03;;;20.00;99.90;;;;;;4978627;28;20288;-65
2023/09/13 02:12:01;;;;;;;6.60;5.13;;;20.00;99.90;;;;;;4979629;28;20218;-65
2023/09/13 02:14:29;;;;;;;5.13;4.63;;;20.10;99.90;;;;;;4972993;28;20222;-65
2023/09/13 02:16:59;;;;;;;5.60;5.00;;;20.00;99.90;;;;;;4979788;28;20255;-65
2023/09/13 02:19:28;;;;;;;4.57;4.18;;;19.90;99.90;;;;;;4976210;28;20276;-65
2023/09/13 02:21:57;;;;;;;5.43;4.93;;;20.10;99.90;;;;;;4983242;28;20264;-65
2023/09/13 02:24:25;;;;;;;5.05;4.55;;;20.00;99.90;;;;;;4972177;28;20566;-65
2023/09/13 02:26:55;;;;;;;3.85;3.55;;;19.90;99.90;;;;;;4980043;28;20234;-65
2023/09/13 02:29:24;;;;;;;4.45;3.80;;;20.10;99.90;;;;;;4980142;28;20728;-65
2023/09/13 02:31:52;;;;;;;4.88;4.47;;;20.20;99.90;;;;;;4973411;28;20217;-65
2023/09/13 02:34:20;;;;;;;4.22;3.85;;;20.20;99.90;;;;;;4982555;28;20272;-64
2023/09/13 02:36:48;;;;;;;4.22;3.88;;;20.00;99.90;;;;;;4983105;28;20264;-64
2023/09/13 02:39:35;;;;;;;5.72;5.15;;;19.90;99.90;;;;;;4976978;28;20249;-64
2023/09/13 02:42:03;;;;;;;4.15;3.85;;;19.90;99.90;;;;;;4984151;28;20214;-64
2023/09/13 02:44:32;;;;;;;4.95;4.45;;;20.00;99.90;;;;;;4987257;28;20213;-64
2023/09/13 02:47:01;;;;;;;4.30;3.42;;;20.30;99.90;;;;;;4977979;28;20474;-64
2023/09/13 02:49:29;;;;;;;4.88;4.47;;;20.30;99.90;;;;;;4979606;28;20233;-65
2023/09/13 02:51:57;;;;;;;4.53;4.13;;;20.50;99.90;;;;;;4987144;28;20559;-64
2023/09/13 02:54:25;;;;;;;3.80;3.42;;;20.50;99.90;;;;;;4975794;28;20587;-65
2023/09/13 02:56:54;;;;;;;5.72;3.50;;;20.60;99.90;;;;;;4983684;28;20230;-64
2023/09/13 02:59:22;;;;;;;3.65;3.35;;;20.90;99.90;;;;;;4986581;28;20776;-64
2023/09/13 03:01:50;;;;;;;3.63;3.30;;;20.90;99.90;;;;;;4987055;28;20698;-64
2023/09/13 03:04:19;;;;;;;3.13;2.85;;;20.90;99.90;;;;;;4977502;28;20209;-64
2023/09/13 03:06:47;;;;;;;3.88;3.10;;;20.80;99.90;;;;;;4978459;28;20221;-64
2023/09/13 03:09:15;;;;;;;3.80;3.50;;;20.70;99.90;;;;;;4980401;28;20731;-65
2023/09/13 03:11:43;;;;;;;3.03;2.72;;;20.50;99.90;;;;;;4986550;28;20205;-65
2023/09/13 03:14:13;;;;;;;3.00;2.70;;;20.40;99.90;;;;;;4978036;28;20530;-65
2023/09/13 03:16:41;;;;;;;2.70;2.50;;;20.40;99.90;;;;;;4986471;28;20284;-65
2023/09/13 03:19:10;;;;;;;2.38;2.17;;;20.30;99.90;;;;;;4985108;28;20301;-65
2023/09/13 03:21:38;;;;;;;3.05;2.45;;;20.10;99.90;;;;;;4982927;28;20202;-65
2023/09/13 03:24:07;;;;;;;2.53;2.33;;;20.10;99.90;;;;;;4986079;28;20431;-65
2023/09/13 03:26:39;;;;;;;2.13;2.03;;;20.00;99.90;;;;;;4982950;28;20210;-65
2023/09/13 03:29:07;;;;;;;2.28;1.75;;;19.90;99.90;;;;;;4983932;28;20210;-64
2023/09/13 03:31:38;;;;;;;2.35;2.15;;;19.90;99.90;;;;;;4986272;28;20221;-64
2023/09/13 03:34:06;;;;;;;1.95;1.85;;;19.80;99.90;;;;;;4985245;28;20209;-64
2023/09/13 03:36:34;;;;;;;2.40;2.20;;;19.70;99.90;;;;;;4987381;28;20688;-65
2023/09/13 03:39:03;;;;;;;2.40;2.20;;;19.60;99.90;;;;;;4979324;28;20217;-64
2023/09/13 03:41:32;;;;;;;2.53;2.33;;;19.50;99.90;;;;;;4986240;28;20207;-64
2023/09/13 03:43:59;;;;;;;2.65;2.45;;;19.40;99.90;;;;;;4982434;28;20319;-65
2023/09/13 03:46:27;;;;;;;2.78;2.35;;;19.30;99.90;;;;;;4975301;28;20211;-65
2023/09/13 03:48:57;;;;;;;2.33;2.13;;;19.30;99.90;;;;;;4983612;28;20517;-65
2023/09/13 03:51:25;;;;;;;2.42;2.22;;;19.40;99.90;;;;;;4974817;28;20209;-65
2023/09/13 03:53:53;;;;;;;4.30;2.85;;;19.50;99.90;;;;;;4981842;28;20214;-64
2023/09/13 03:56:21;;;;;;;2.80;2.60;;;19.50;99.90;;;;;;4985056;28;20221;-65
2023/09/13 03:58:49;;;;;;;2.80;2.55;;;19.40;99.90;;;;;;4978879;28;20236;-65
2023/09/13 04:01:17;;;;;;;3.33;2.75;;;19.40;99.90;;;;;;4980181;28;20215;-65
2023/09/13 04:03:45;;;;;;;2.78;2.58;;;19.30;99.90;;;;;;4969764;28;20289;-65
2023/09/13 04:06:16;;;;;;;3.08;2.85;;;19.30;99.90;;;;;;4971534;28;20209;-64
2023/09/13 04:08:44;;;;;;;2.60;2.40;;;19.30;99.90;;;;;;4970471;28;20312;-65
2023/09/13 04:11:11;;;;;;;4.10;2.28;;;19.30;99.90;;;;;;4971742;28;20222;-64
2023/09/13 04:13:39;;;;;;;2.90;2.70;;;19.10;99.90;;;;;;4960783;28;20218;-64
2023/09/13 04:16:08;;;;;;;2.90;2.70;;;19.10;99.90;;;;;;4960447;28;20214;-64
2023/09/13 04:18:36;;;;;;;3.20;2.60;;;19.00;99.90;;;;;;4961577;28;20353;-64
2023/09/13 04:21:04;;;;;;;2.38;2.10;;;19.20;99.90;;;;;;4960454;28;20223;-64
2023/09/13 04:23:33;;;;;;;2.55;2.35;;;19.10;99.90;;;;;;4960637;28;20211;-65
2023/09/13 04:26:01;;;;;;;2.33;2.13;;;19.60;99.90;;;;;;4960291;28;20281;-65
2023/09/13 04:28:30;;;;;;;3.58;2.33;;;20.10;99.90;;;;;;4961181;28;20218;-64
2023/09/13 04:31:00;;;;;;;2.35;2.15;;;20.20;99.90;;;;;;4958537;28;20289;-65
2023/09/13 04:33:47;;;;;;;2.30;2.10;;;20.50;99.90;;;;;;4960441;28;20564;-65
2023/09/13 04:36:15;;;;;;;1.70;1.60;;;20.90;99.90;;;;;;4959441;28;20701;-65
2023/09/13 04:38:45;;;;;;;2.13;2.00;;;20.60;99.90;;;;;;4960183;28;20230;-64
2023/09/13 04:41:14;;;;;;;1.85;1.75;;;20.50;99.90;;;;;;4958633;28;20233;-64
2023/09/13 04:43:42;;;;;;;2.80;2.47;;;20.60;99.90;;;;;;4959112;28;20215;-64
2023/09/13 04:46:10;;;;;;;2.38;2.17;;;20.30;99.90;;;;;;4960792;28;20222;-64
2023/09/13 04:48:38;;;;;;;3.55;2.40;;;19.90;99.90;;;;;;4958373;28;20719;-65
2023/09/13 04:51:06;;;;;;;2.33;2.13;;;19.80;99.90;;;;;;4957273;28;20229;-65
2023/09/13 04:53:34;;;;;;;2.95;2.30;;;19.90;99.90;;;;;;4961195;28;20214;-64
2023/09/13 04:56:04;;;;;;;3.83;2.00;;;19.90;99.90;;;;;;4960446;28;20229;-65
2023/09/13 04:58:33;;;;;;;2.00;1.70;;;19.90;99.90;;;;;;4960188;28;20736;-64
2023/09/13 05:01:04;;;;;;;1.70;1.60;;;20.00;99.90;;;;;;4958239;28;20225;-65
2023/09/13 05:03:32;;;;;;;3.03;2.10;;;20.30;99.90;;;;;;4958603;28;20293;-65
2023/09/13 05:06:00;;;;;;;2.63;1.92;;;20.80;99.90;;;;;;4960842;28;20289;-65
2023/09/13 05:08:28;;;;;;;2.65;2.08;;;20.70;99.90;;;;;;4959380;28;20226;-66
2023/09/13 05:10:56;;;;;;;2.05;1.70;;;20.80;99.90;;;;;;4959282;28;20947;-65
2023/09/13 05:13:25;;;;;;;2.00;1.80;;;20.60;99.90;;;;;;4960094;28;20214;-65
2023/09/13 05:15:53;;;;;;;1.52;1.42;;;20.90;99.90;;;;;;4960896;28;20332;-65
2023/09/13 05:18:21;;;;;;;1.50;1.40;;;21.00;99.90;;;;;;4960629;28;20230;-65
2023/09/13 05:20:49;;;;;;;2.58;1.73;;;21.00;99.90;;;;;;4958097;28;20222;-66
2023/09/13 05:23:18;;;;;;;1.95;1.20;;;21.10;99.90;;;;;;4959880;28;20233;-65
2023/09/13 05:25:48;;;;;;;1.63;1.50;;;20.80;99.90;;;;;;4960319;28;20218;-64
2023/09/13 05:28:17;;;;;;;1.77;1.67;;;20.80;99.90;;;;;;4959225;28;20222;-65
2023/09/13 05:30:49;;;;;;;2.05;1.40;;;21.00;99.90;;;;;;4958521;28;20297;-65
2023/09/13 05:33:17;;;;;;;2.10;2.00;;;20.90;99.90;;;;;;4960106;28;20211;-65
2023/09/13 05:35:45;;;;;;;1.40;1.27;;;20.70;99.90;;;;;;4959912;28;20226;-65
2023/09/13 05:38:13;;;;;;;1.65;1.55;;;20.60;99.90;;;;;;4959654;28;20774;-65
2023/09/13 05:40:41;;;;;;;1.73;1.45;;;20.40;99.90;;;;;;4958024;28;20237;-64
2023/09/13 05:43:09;;;;;;;2.97;2.45;;;20.60;99.90;;;;;;4959448;28;21151;-64
2023/09/13 05:45:37;;;;;;;3.55;2.33;;;20.40;99.90;;;;;;4959164;28;21227;-65
2023/09/13 05:48:07;;;;;;;4.75;1.95;;;20.30;99.90;;;;;;4959122;28;20249;-65
2023/09/13 05:50:35;;;;;;;2.15;1.95;;;20.20;99.90;;;;;;4956420;28;20225;-64
2023/09/13 05:53:03;;;;;;;2.35;2.15;;;19.80;99.90;;;;;;4958472;28;21603;-65
2023/09/13 05:55:31;;;;;;;2.50;1.95;;;19.80;99.90;;;;;;4957830;28;20214;-64
2023/09/13 05:57:59;;;;;;;1.60;1.50;;;19.80;99.90;;;;;;4963011;28;20455;-66
2023/09/13 06:00:27;;;;;;;1.77;1.63;;;20.00;99.90;;;;;;4970946;28;20199;-66
2023/09/13 06:02:55;;;;;;;1.80;1.70;;;20.00;99.90;;;;;;4985647;28;20213;-66
2023/09/13 06:05:24;;;;;;;2.17;1.98;;;19.90;99.90;;;;;;4980952;28;20214;-65
2023/09/13 06:07:52;;;;;;;2.58;2.35;;;19.80;99.90;;;;;;4980440;28;20270;-66
2023/09/13 06:10:20;;;;;;;2.75;2.15;;;19.70;99.90;;;;;;4982047;28;20596;-65
2023/09/13 06:12:48;;;;;;;1.88;1.70;;;19.60;99.90;;;;;;4983476;28;20284;-63
2023/09/13 06:15:16;;;;;;;2.47;2.28;;;19.70;99.90;;;;;;4981804;28;20213;-69
2023/09/13 06:17:44;;;;;;;2.67;1.90;;;19.70;99.90;;;;;;4978811;28;20312;-68
2023/09/13 06:20:12;;;;;;;2.65;2.45;;;19.50;99.90;;;;;;4972475;28;20205;-68
2023/09/13 06:22:41;;;;;;;1.90;1.80;;;19.30;99.90;;;;;;4971613;28;20290;-68
2023/09/13 06:25:10;;;;;;;3.00;2.50;;;19.10;99.90;;;;;;4979570;28;20209;-69
2023/09/13 06:27:39;;;;;;;2.70;2.50;;;19.00;99.90;;;;;;4980107;28;20237;-69
2023/09/13 06:30:08;;;;;;;3.35;2.92;;;19.00;99.90;;;;;;4972219;28;20665;-68
2023/09/13 06:32:36;;;;;;;2.42;2.22;;;19.00;99.90;;;;;;4983500;28;20201;-69
2023/09/13 06:35:11;;;;;;;2.67;2.47;;;19.00;99.90;;;;;;4982680;28;20206;-68
2023/09/13 06:37:48;;;;;;;2.83;2.63;;;19.00;99.90;;;;;;4979730;28;20281;-69
2023/09/13 06:40:17;;;;;;;2.83;2.63;;;19.10;99.90;;;;;;4971864;28;20691;-69
2023/09/13 06:42:48;;;;;;;2.50;2.15;;;19.20;99.90;;;;;;4972107;28;20261;-68
2023/09/13 06:45:27;;;;;;;2.80;2.60;;;19.40;99.90;;;;;;4980009;28;20556;-68
2023/09/13 06:47:58;;;;;;;2.42;2.22;;;19.50;99.90;;;;;;4978918;28;20240;-68
2023/09/13 06:50:27;;;;;;;2.55;2.35;;;19.60;99.90;;;;;;4972246;28;20314;-69
2023/09/13 06:52:59;;;;;;;8.10;3.58;;;19.60;99.90;;;;;;4971549;28;20198;-68
2023/09/13 06:55:31;;;;;;;3.00;2.63;;;19.60;99.90;;;;;;4972106;28;20203;-68
2023/09/13 06:58:06;;;;;;;3.30;3.00;;;19.70;99.90;;;;;;4971902;28;20241;-70
2023/09/13 07:00:41;;;;;;;4.32;3.88;;;19.80;99.90;;;;;;4980415;28;20213;-69
2023/09/13 07:03:29;;;;;;;7.22;2.92;;;19.70;99.90;;;;;;4971051;28;20301;-69
2023/09/13 07:06:02;;;;;;;3.70;2.55;;;19.80;99.90;;;;;;4980091;28;20697;-68
2023/09/13 07:08:31;;;;;;;2.72;2.35;;;20.00;99.90;;;;;;4972549;28;20214;-70
2023/09/13 07:11:00;;;;;;;3.58;2.55;;;20.10;99.90;;;;;;4971987;28;20207;-69
2023/09/13 07:13:29;;;;;;;3.72;3.05;;;20.30;99.90;;;;;;4974511;28;20209;-69
2023/09/13 07:15:57;;;;;;;2.75;2.20;;;20.40;99.90;;;;;;4976312;28;20230;-68
2023/09/13 07:18:24;;;;;;;3.55;3.25;;;20.50;99.90;;;;;;4971055;28;20226;-69
2023/09/13 07:20:52;;;;;;;3.65;3.28;;;20.60;99.90;;;;;;4971888;28;20202;-70
2023/09/13 07:23:20;;;;;;;3.17;2.97;;;20.60;99.90;;;;;;4973318;28;20207;-68
2023/09/13 07:25:50;;;;;;;4.72;3.40;;;20.60;99.90;;;;;;4983240;28;20210;-69
2023/09/13 07:28:18;;;;;;;2.92;2.72;;;20.70;99.90;;;;;;4972992;28;20229;-69
2023/09/13 07:30:46;;;;;;;5.30;4.28;;;20.60;99.90;;;;;;4983400;28;20238;-68
2023/09/13 07:33:14;;;;;;;5.55;3.10;;;20.60;99.90;;;;;;4980615;28;20702;-69
2023/09/13 07:35:42;;;;;;;2.58;2.38;;;20.60;99.90;;;;;;4981827;28;20206;-69
2023/09/13 07:38:11;;;;;;;3.40;2.80;;;20.60;99.90;;;;;;4974839;28;20623;-68
2023/09/13 07:40:39;;;;;;;2.70;2.50;;;20.70;99.90;;;;;;4968229;28;20285;-68
2023/09/13 07:43:09;;;;;;;3.25;2.95;;;20.80;99.90;;;;;;4974684;28;20202;-70
2023/09/13 07:45:37;;;;;;;3.53;2.63;;;20.80;99.90;;;;;;4979120;28;20212;-69
2023/09/13 07:48:05;;;;;;;2.65;2.45;;;20.70;99.90;;;;;;4977951;28;20243;-68
2023/09/13 07:50:36;;;;;;;4.10;3.70;;;20.80;99.90;;;;;;4974798;28;20199;-69
2023/09/13 07:53:05;;;;;;;3.80;2.83;;;20.80;99.90;;;;;;4982854;28;20210;-68
2023/09/13 07:55:34;;;;;;;2.55;2.35;;;21.00;99.90;;;;;;4967137;28;20210;-68
2023/09/13 07:58:03;;;;;;;4.30;3.83;;;21.00;99.90;;;;;;4982790;28;20234;-68
2023/09/13 08:00:33;;;;;;;5.80;2.72;;;20.90;99.90;;;;;;4977747;28;20222;-69
2023/09/13 08:03:01;;;;;;;2.45;2.20;;;20.90;99.90;;;;;;4978512;28;20265;-69
2023/09/13 08:05:29;;;;;;;4.72;3.05;;;21.00;99.90;;;;;;4982489;28;20553;-68
2023/09/13 08:07:59;;;;;;;4.22;3.50;;;21.10;99.90;;;;;;4982420;28;20261;-68
2023/09/13 08:10:27;;;;;;;3.28;2.97;;;21.10;99.90;;;;;;4975248;28;20245;-70
2023/09/13 08:12:55;;;;;;;3.60;2.85;;;21.00;99.90;;;;;;4974309;28;20207;-69
2023/09/13 08:15:23;;;;;;;5.00;2.92;;;21.10;99.90;;;;;;4984449;28;20207;-69
2023/09/13 08:18:11;;;;;;;2.88;2.47;;;21.00;99.90;;;;;;4976802;28;20226;-68
2023/09/13 08:20:39;;;;;;;4.43;3.45;;;21.10;99.90;;;;;;4982375;28;20305;-69
2023/09/13 08:23:06;;;;;;;3.05;2.85;;;21.10;99.90;;;;;;4982178;28;20219;-68
2023/09/13 08:25:35;;;;;;;3.40;3.10;;;21.00;99.90;;;;;;4974745;28;20258;-69
2023/09/13 08:28:03;;;;;;;3.35;3.05;;;21.00;99.90;;;;;;4973957;28;20723;-69
2023/09/13 08:30:31;;;;;;;2.90;2.60;;;20.80;99.90;;;;;;4981970;28;20521;-68
2023/09/13 08:32:59;;;;;;;4.18;3.55;;;20.90;99.90;;;;;;4973677;28;20290;-68
2023/09/13 08:35:29;;;;;;;5.70;3.50;;;21.10;99.90;;;;;;4981932;28;20209;-68
2023/09/13 08:37:56;;;;;;;2.95;2.72;;;21.30;99.90;;;;;;4980382;28;20226;-69
2023/09/13 08:40:25;;;;;;;3.35;3.03;;;21.40;99.90;;;;;;4974416;28;20221;-70
2023/09/13 08:42:53;;;;;;;5.93;2.20;;;21.40;99.90;;;;;;4973725;28;20257;-69
2023/09/13 08:45:22;;;;;;;2.90;2.70;;;21.50;99.90;;;;;;4983361;28;20206;-68
2023/09/13 08:47:55;;;;;;;3.45;3.15;;;21.70;99.90;;;;;;4975120;28;20318;-68
2023/09/13 08:50:30;;;;;;;3.85;3.08;;;21.70;99.90;;;;;;4973508;28;20195;-68
2023/09/13 08:53:00;;;;;;;3.90;3.25;;;21.70;99.90;;;;;;4980066;28;20209;-69
2023/09/13 08:55:29;;;;;;;3.58;3.28;;;21.80;99.90;;;;;;4982482;28;20240;-68
2023/09/13 08:57:57;;;;;;;3.75;3.38;;;22.00;99.90;;;;;;4981695;28;20227;-68
2023/09/13 09:00:28;;;;;;;3.83;3.30;;;22.30;99.90;;;;;;4975261;28;20310;-68
2023/09/13 09:02:59;;;;;;;3.97;3.58;;;22.40;99.90;;;;;;4973035;28;20222;-69
2023/09/13 09:05:29;;;;;;;3.67;3.38;;;22.50;99.90;;;;;;4981577;28;20210;-69
2023/09/13 09:07:59;;;;;;;4.55;3.70;;;22.50;99.90;;;;;;4973442;28;20230;-69
2023/09/13 09:10:27;;;;;;;3.10;2.22;;;22.60;99.90;;;;;;4973200;28;20683;-69
2023/09/13 09:12:59;;;;;;;3.45;3.15;;;22.60;99.90;;;;;;4973168;28;20222;-69
2023/09/13 09:15:28;;;;;;;4.32;2.85;;;22.60;99.90;;;;;;4981283;28;20214;-69
2023/09/13 09:17:59;;;;;;;4.35;3.05;;;22.80;99.90;;;;;;4978753;28;20230;-68
2023/09/13 09:20:28;;;;;;;2.60;2.40;;;22.90;99.90;;;;;;4981941;28;20296;-69
2023/09/13 09:22:58;;;;;;;2.58;2.30;;;22.80;99.90;;;;;;4980904;28;20695;-69
2023/09/13 09:25:26;;;;;;;2.47;2.28;;;23.10;99.90;;;;;;4981002;28;20504;-68
2023/09/13 09:27:54;;;;;;;2.40;2.15;;;23.40;99.90;;;;;;4981084;28;20556;-69
2023/09/13 09:30:31;;;;;;;3.33;2.22;;;24.00;99.90;;;;;;4982087;28;20209;-69
2023/09/13 09:33:04;;;;;;;1.88;1.60;;;24.00;99.90;;;;;;4972801;28;20202;-69
2023/09/13 09:35:34;;;;;;;3.50;2.20;;;24.00;99.90;;;;;;4972679;28;20211;-69
2023/09/13 09:38:03;;;;;;;2.13;1.92;;;24.00;99.90;;;;;;4979550;28;20225;-69
2023/09/13 09:40:38;;;;;;;1.95;1.75;;;23.90;99.90;;;;;;4972948;28;20226;-69
2023/09/13 09:43:06;;;;;;;1.92;1.83;;;23.70;99.90;;;;;;4979501;28;20258;-69
2023/09/13 09:45:34;;;;;;;3.00;2.42;;;23.40;99.90;;;;;;4981298;28;20266;-68
2023/09/13 09:48:02;;;;;;;1.80;1.60;;;23.10;99.90;;;;;;5003981;23;20222;-69
2023/09/13 09:50:33;;;;;;;1.52;1.42;;;22.90;99.90;;;;;;5012463;28;20205;-69
2023/09/13 09:53:08;;;;;;;2.20;1.58;;;22.80;99.90;;;;;;5010795;28;20208;-69
2023/09/13 09:55:37;;;;;;;1.98;1.45;;;22.70;99.90;;;;;;5011613;28;20196;-69
2023/09/13 09:58:05;;;;;;;1.45;1.35;;;22.80;99.90;;;;;;5008305;28;20214;-69
2023/09/13 10:00:44;;;;;;;2.25;1.90;;;22.90;99.90;;;;;;4994438;28;20702;-69
2023/09/13 10:03:17;;;;;;;2.20;1.80;;;23.10;99.90;;;;;;5011314;28;20204;-69
2023/09/13 10:06:01;;;;;;;1.55;1.45;;;23.40;99.90;;;;;;4991998;28;20205;-70
2023/09/13 10:08:43;;;;;;;2.05;1.65;;;24.00;99.90;;;;;;5001823;28;20217;-69
2023/09/13 10:11:17;;;;;;;1.75;1.65;;;24.40;99.90;;;;;;5011416;28;20255;-69
2023/09/13 10:13:46;;;;;;;2.08;1.65;;;24.50;99.90;;;;;;4995329;28;20205;-71
2023/09/13 10:16:16;;;;;;;2.25;1.63;;;24.20;99.90;;;;;;4998305;28;20715;-68
2023/09/13 10:18:46;;;;;;;1.67;1.58;;;24.00;99.90;;;;;;4999906;28;20213;-70
2023/09/13 10:21:20;;;;;;;1.50;1.40;;;24.20;99.90;;;;;;4999701;28;20300;-69
2023/09/13 10:23:53;;;;;;;2.00;1.83;;;24.60;99.90;;;;;;5003644;28;20192;-69
2023/09/13 10:26:23;;;;;;;1.20;1.10;;;25.00;99.90;;;;;;4994427;28;20673;-69
2023/09/13 10:28:55;;;;;;;2.30;2.10;;;25.40;99.90;;;;;;4991552;28;20224;-69
2023/09/13 10:31:29;;;;;;;1.75;1.65;;;25.50;99.90;;;;;;4995655;28;20201;-69
2023/09/13 10:34:03;;;;;;;1.55;1.45;;;25.40;99.90;;;;;;4991383;28;20554;-69
2023/09/13 10:36:37;;;;;;;2.28;1.50;;;25.00;99.90;;;;;;4993121;28;20201;-69
2023/09/13 10:39:12;;;;;;;1.10;1.00;;;24.90;99.90;;;;;;5010865;28;20209;-69
2023/09/13 10:41:46;;;;;;;1.17;1.08;;;24.80;99.90;;;;;;5008042;28;20225;-69
2023/09/13 10:44:15;;;;;;;1.92;1.65;;;24.80;99.90;;;;;;4991321;28;20288;-68
2023/09/13 10:46:44;;;;;;;1.42;1.33;;;24.70;99.90;;;;;;5001016;28;20203;-69
2023/09/13 10:49:12;;;;;;;1.55;1.23;;;24.50;99.90;;;;;;4995511;28;20316;-69
2023/09/13 10:51:43;;;;;;;1.60;1.20;;;24.60;99.90;;;;;;5004914;28;20209;-68
2023/09/13 10:54:13;;;;;;;1.33;1.23;;;24.80;99.90;;;;;;4991265;28;20862;-69
2023/09/13 10:56:41;;;;;;;1.20;1.10;;;24.80;99.90;;;;;;4993822;28;20209;-69
2023/09/13 10:59:12;;;;;;;1.00;0.85;;;24.70;99.90;;;;;;5002901;28;20221;-68
2023/09/13 11:01:46;;;;;;;2.40;1.30;;;24.40;99.90;;;;;;5002474;28;20225;-69
2023/09/13 11:04:14;;;;;;;1.42;1.33;;;24.30;99.90;;;;;;5013851;28;20311;-69
2023/09/13 11:06:44;;;;;;;1.90;1.30;;;24.10;99.90;;;;;;5005834;28;20209;-69
2023/09/13 11:09:14;;;;;;;1.63;1.52;;;24.00;99.90;;;;;;5007362;28;20216;-70
2023/09/13 11:11:47;;;;;;;2.28;1.67;;;23.80;99.90;;;;;;5011845;28;20737;-69
2023/09/13 11:14:18;;;;;;;1.40;1.02;;;23.60;99.90;;;;;;4994806;28;20284;-68
2023/09/13 11:16:47;;;;;;;1.17;1.08;;;23.40;99.90;;;;;;4994982;28;20289;-68
2023/09/13 11:19:15;;;;;;;1.35;1.25;;;23.40;99.90;;;;;;4994912;28;20720;-68
2023/09/13 11:21:51;;;;;;;1.50;1.40;;;23.50;99.90;;;;;;5005035;28;20229;-69
2023/09/13 11:24:35;;;;;;;1.65;1.55;;;23.50;99.90;;;;;;5006303;28;20208;-68
2023/09/13 11:27:25;;;;;;;1.85;1.60;;;23.50;99.90;;;;;;5003121;28;20229;-68
2023/09/13 11:29:59;;;;;;;1.80;1.70;;;23.40;99.90;;;;;;4998855;28;20679;-68
2023/09/13 11:32:30;;;;;;;1.70;1.60;;;23.50;99.90;;;;;;4997452;28;20225;-69
2023/09/13 11:35:00;;;;;;;1.48;1.38;;;23.50;99.90;;;;;;4994596;28;20204;-69
2023/09/13 11:37:33;;;;;;;1.55;1.45;;;23.50;99.90;;;;;;5002376;28;20268;-69
2023/09/13 11:40:09;;;;;;;2.35;1.70;;;23.50;99.90;;;;;;5004228;28;20218;-68
2023/09/13 11:42:41;;;;;;;1.65;1.55;;;23.60;99.90;;;;;;5010514;28;20267;-68
2023/09/13 11:45:30;;;;;;;1.70;1.25;;;23.70;99.90;;;;;;4994347;28;20216;-68
2023/09/13 11:48:04;;;;;;;1.73;1.63;;;23.70;99.90;;;;;;5002478;28;20214;-68
2023/09/13 11:50:43;;;;;;;1.20;1.10;;;23.80;99.90;;;;;;5003211;28;20198;-68
2023/09/13 11:53:24;;;;;;;1.70;1.60;;;23.90;99.90;;;;;;4998862;28;20193;-69
2023/09/13 11:55:55;;;;;;;3.75;1.52;;;23.90;99.90;;;;;;5006149;28;20228;-68
2023/09/13 11:58:31;;;;;;;2.10;1.80;;;23.80;99.90;;;;;;4997552;28;20283;-68
2023/09/13 12:01:08;;;;;;;1.40;1.30;;;24.00;99.90;;;;;;4994077;28;20218;-68
2023/09/13 12:03:39;;;;;;;1.60;1.50;;;24.10;99.90;;;;;;5001966;28;20204;-69
2023/09/13 12:06:10;;;;;;;2.83;1.33;;;24.30;99.90;;;;;;4994312;28;20648;-69
2023/09/13 12:08:59;;;;;;;1.60;1.30;;;24.50;99.90;;;;;;5000025;28;20221;-69
2023/09/13 12:11:32;;;;;;;1.50;1.40;;;24.60;99.90;;;;;;5011942;28;20754;-68
2023/09/13 12:14:03;;;;;;;1.60;1.50;;;24.90;99.90;;;;;;4993668;28;20289;-69
2023/09/13 12:16:40;;;;;;;2.08;1.30;;;25.20;99.90;;;;;;4993861;28;20284;-68
2023/09/13 12:19:10;;;;;;;1.75;1.55;;;25.30;99.90;;;;;;4993923;28;20240;-69
2023/09/13 12:21:44;;;;;;;1.27;1.10;;;25.30;99.90;;;;;;5001610;28;20225;-68
2023/09/13 12:24:19;;;;;;;3.72;1.40;;;25.40;99.90;;;;;;4993526;28;20194;-69
2023/09/13 12:26:52;;;;;;;2.03;1.90;;;25.90;99.90;;;;;;5008584;28;20209;-68
2023/09/13 12:29:21;;;;;;;1.67;1.58;;;26.00;99.90;;;;;;4993928;28;20288;-69
2023/09/13 12:31:50;;;;;;;1.63;1.15;;;26.20;99.90;;;;;;4993176;28;20201;-68
2023/09/13 12:34:18;;;;;;;1.60;1.50;;;26.40;99.90;;;;;;4995920;28;20197;-68
2023/09/13 12:36:47;;;;;;;1.55;1.45;;;26.20;99.90;;;;;;4994466;28;20209;-69
2023/09/13 12:39:16;;;;;;;2.20;1.65;;;26.20;99.90;;;;;;5001685;28;20217;-69
2023/09/13 12:41:44;;;;;;;1.85;1.63;;;26.60;99.90;;;;;;5012479;28;20593;-69
2023/09/13 12:44:14;;;;;;;1.92;1.52;;;26.80;99.90;;;;;;5006913;28;20326;-69
2023/09/13 12:46:43;;;;;;;1.00;0.90;;;27.00;99.90;;;;;;4993285;28;20233;-69
2023/09/13 12:49:12;;;;;;;1.77;1.50;;;26.80;99.90;;;;;;4992948;28;20226;-69
2023/09/13 12:51:40;;;;;;;1.80;1.70;;;26.80;99.90;;;;;;4993027;28;20263;-69
2023/09/13 12:54:12;;;;;;;2.50;1.40;;;26.50;99.90;;;;;;4993104;28;20197;-69
2023/09/13 12:56:42;;;;;;;1.65;1.50;;;26.90;99.90;;;;;;4994282;28;20210;-69
2023/09/13 12:59:10;;;;;;;2.33;1.65;;;27.40;99.90;;;;;;5007317;28;20222;-69
2023/09/13 13:01:38;;;;;;;3.13;1.20;;;28.00;99.90;;;;;;5001372;28;20240;-69
2023/09/13 13:04:08;;;;;;;1.40;1.20;;;28.50;99.90;;;;;;4992949;28;20194;-69